sensor_id;sensor_type;location;lat;lon;timestamp;pressure;altitude;pressure_sealevel;temperature;humidity
76106;BME280;64832;45.274;5.880;2023-08-17T00:01:32;98948.50;;;26.69;54.08
76106;BME280;64832;45.274;5.880;2023-08-17T00:03:57;98944.09;;;26.68;54.25
76106;BME280;64832;45.274;5.880;2023-08-17T00:06:22;98944.94;;;26.68;54.35
76106;BME280;64832;45.274;5.880;2023-08-17T00:08:48;98937.81;;;26.67;54.14
76106;BME280;64832;45.274;5.880;2023-08-17T00:11:13;98935.09;;;26.67;54.33
76106;BME280;64832;45.274;5.880;2023-08-17T00:13:39;98928.78;;;26.67;54.19
76106;BME280;64832;45.274;5.880;2023-08-17T00:16:04;98925.19;;;26.66;54.35
76106;BME280;64832;45.274;5.880;2023-08-17T00:18:29;98925.19;;;26.66;54.37
76106;BME280;64832;45.274;5.880;2023-08-17T00:20:55;98916.16;;;26.66;54.20
76106;BME280;64832;45.274;5.880;2023-08-17T00:23:21;98927.13;;;26.66;54.03
76106;BME280;64832;45.274;5.880;2023-08-17T00:25:47;98923.56;;;26.65;54.23
76106;BME280;64832;45.274;5.880;2023-08-17T00:28:14;98926.28;;;26.65;54.25
76106;BME280;64832;45.274;5.880;2023-08-17T00:30:39;98921.13;;;26.64;53.98
76106;BME280;64832;45.274;5.880;2023-08-17T00:33:05;98927.13;;;26.66;53.71
76106;BME280;64832;45.274;5.880;2023-08-17T00:35:30;98930.16;;;26.64;53.80
76106;BME280;64832;45.274;5.880;2023-08-17T00:37:56;98914.81;;;26.63;53.83
76106;BME280;64832;45.274;5.880;2023-08-17T00:40:21;98917.28;;;26.65;53.68
76106;BME280;64832;45.274;5.880;2023-08-17T00:42:46;98913.97;;;26.63;53.64
76106;BME280;64832;45.274;5.880;2023-08-17T00:45:12;98899.22;;;26.59;53.46
76106;BME280;64832;45.274;5.880;2023-08-17T00:47:37;98909.31;;;26.63;53.61
76106;BME280;64832;45.274;5.880;2023-08-17T00:50:03;98906.56;;;26.63;53.28
76106;BME280;64832;45.274;5.880;2023-08-17T00:52:30;98912.06;;;26.63;53.23
76106;BME280;64832;45.274;5.880;2023-08-17T00:54:57;98904.13;;;26.62;53.23
76106;BME280;64832;45.274;5.880;2023-08-17T00:57:23;98907.97;;;26.61;53.24
76106;BME280;64832;45.274;5.880;2023-08-17T00:59:49;98903.00;;;26.63;53.08
76106;BME280;64832;45.274;5.880;2023-08-17T01:02:17;98910.41;;;26.62;53.06
76106;BME280;64832;45.274;5.880;2023-08-17T01:04:42;98911.81;;;26.60;53.04
76106;BME280;64832;45.274;5.880;2023-08-17T01:07:08;98924.44;;;26.61;53.09
76106;BME280;64832;45.274;5.880;2023-08-17T01:09:33;98918.94;;;26.61;53.07
76106;BME280;64832;45.274;5.880;2023-08-17T01:14:45;98935.09;;;26.62;52.87
76106;BME280;64832;45.274;5.880;2023-08-17T01:17:18;98937.63;;;26.59;53.03
76106;BME280;64832;45.274;5.880;2023-08-17T01:19:47;98941.19;;;26.59;53.03
76106;BME280;64832;45.274;5.880;2023-08-17T01:22:17;98941.47;;;26.58;53.17
76106;BME280;64832;45.274;5.880;2023-08-17T01:24:43;98940.38;;;26.59;52.99
76106;BME280;64832;45.274;5.880;2023-08-17T01:27:08;98939.25;;;26.60;53.09
76106;BME280;64832;45.274;5.880;2023-08-17T01:29:34;98945.56;;;26.60;52.94
76106;BME280;64832;45.274;5.880;2023-08-17T01:32:08;98941.19;;;26.59;52.76
76106;BME280;64832;45.274;5.880;2023-08-17T01:34:48;98930.50;;;26.58;52.88
76106;BME280;64832;45.274;5.880;2023-08-17T01:37:18;98943.41;;;26.57;52.98
76106;BME280;64832;45.274;5.880;2023-08-17T01:39:50;98935.16;;;26.57;52.79
76106;BME280;64832;45.274;5.880;2023-08-17T01:42:17;98932.72;;;26.56;52.97
76106;BME280;64832;45.274;5.880;2023-08-17T01:44:44;98945.31;;;26.57;52.87
76106;BME280;64832;45.274;5.880;2023-08-17T01:47:09;98942.88;;;26.55;52.90
76106;BME280;64832;45.274;5.880;2023-08-17T01:49:35;98930.31;;;26.49;52.60
76106;BME280;64832;45.274;5.880;2023-08-17T01:52:01;98942.03;;;26.55;52.81
76106;BME280;64832;45.274;5.880;2023-08-17T01:54:26;98941.53;;;26.53;52.70
76106;BME280;64832;45.274;5.880;2023-08-17T01:56:51;98947.53;;;26.55;52.22
76106;BME280;64832;45.274;5.880;2023-08-17T01:59:17;98949.44;;;26.54;52.46
76106;BME280;64832;45.274;5.880;2023-08-17T02:01:42;98943.97;;;26.54;52.64
76106;BME280;64832;45.274;5.880;2023-08-17T02:04:07;98943.19;;;26.54;52.47
76106;BME280;64832;45.274;5.880;2023-08-17T02:06:33;98939.31;;;26.55;52.32
76106;BME280;64832;45.274;5.880;2023-08-17T02:08:58;98940.44;;;26.54;52.18
76106;BME280;64832;45.274;5.880;2023-08-17T02:11:24;98946.19;;;26.52;52.35
76106;BME280;64832;45.274;5.880;2023-08-17T02:13:49;98951.69;;;26.52;52.27
76106;BME280;64832;45.274;5.880;2023-08-17T02:16:15;98950.84;;;26.52;52.27
76106;BME280;64832;45.274;5.880;2023-08-17T02:18:40;98945.38;;;26.52;52.18
76106;BME280;64832;45.274;5.880;2023-08-17T02:21:06;98939.06;;;26.51;52.00
76106;BME280;64832;45.274;5.880;2023-08-17T02:23:31;98946.50;;;26.51;52.04
76106;BME280;64832;45.274;5.880;2023-08-17T02:25:56;98942.63;;;26.52;52.03
76106;BME280;64832;45.274;5.880;2023-08-17T02:28:22;98930.03;;;26.51;51.89
76106;BME280;64832;45.274;5.880;2023-08-17T02:30:48;98936.31;;;26.51;51.84
76106;BME280;64832;45.274;5.880;2023-08-17T02:33:14;98937.97;;;26.52;51.83
76106;BME280;64832;45.274;5.880;2023-08-17T02:35:39;98937.97;;;26.52;51.97
76106;BME280;64832;45.274;5.880;2023-08-17T02:38:04;98937.13;;;26.52;51.67
76106;BME280;64832;45.274;5.880;2023-08-17T02:40:30;98940.69;;;26.52;51.72
76106;BME280;64832;45.274;5.880;2023-08-17T02:42:55;98930.03;;;26.51;51.19
76106;BME280;64832;45.274;5.880;2023-08-17T02:45:21;98924.81;;;26.49;51.43
76106;BME280;64832;45.274;5.880;2023-08-17T02:47:46;98906.75;;;26.48;51.41
76106;BME280;64832;45.274;5.880;2023-08-17T02:50:11;98911.91;;;26.50;51.50
76106;BME280;64832;45.274;5.880;2023-08-17T02:52:37;98907.53;;;26.49;50.70
76106;BME280;64832;45.274;5.880;2023-08-17T02:55:02;98908.09;;;26.51;51.12
76106;BME280;64832;45.274;5.880;2023-08-17T02:57:28;98894.06;;;26.52;52.03
76106;BME280;64832;45.274;5.880;2023-08-17T02:59:53;98901.47;;;26.52;52.57
76106;BME280;64832;45.274;5.880;2023-08-17T03:02:19;98913.00;;;26.54;52.86
76106;BME280;64832;45.274;5.880;2023-08-17T03:04:44;98912.44;;;26.52;53.00
76106;BME280;64832;45.274;5.880;2023-08-17T03:07:09;98911.34;;;26.53;52.86
76106;BME280;64832;45.274;5.880;2023-08-17T03:09:35;98922.31;;;26.53;52.79
76106;BME280;64832;45.274;5.880;2023-08-17T03:12:00;98916.59;;;26.49;52.63
76106;BME280;64832;45.274;5.880;2023-08-17T03:14:25;98914.16;;;26.48;52.60
76106;BME280;64832;45.274;5.880;2023-08-17T03:16:51;98924.00;;;26.49;52.14
76106;BME280;64832;45.274;5.880;2023-08-17T03:19:16;98924.28;;;26.47;52.10
76106;BME280;64832;45.274;5.880;2023-08-17T03:21:42;98915.75;;;26.49;52.14
76106;BME280;64832;45.274;5.880;2023-08-17T03:24:08;98907.53;;;26.49;52.32
76106;BME280;64832;45.274;5.880;2023-08-17T03:26:33;98903.19;;;26.48;52.32
76106;BME280;64832;45.274;5.880;2023-08-17T03:28:58;98902.03;;;26.49;52.03
76106;BME280;64832;45.274;5.880;2023-08-17T03:31:24;98901.25;;;26.48;51.94
76106;BME280;64832;45.274;5.880;2023-08-17T03:33:49;98902.34;;;26.47;52.21
76106;BME280;64832;45.274;5.880;2023-08-17T03:36:15;98918.00;;;26.47;52.24
76106;BME280;64832;45.274;5.880;2023-08-17T03:38:40;98931.69;;;26.47;52.18
76106;BME280;64832;45.274;5.880;2023-08-17T03:41:06;98945.94;;;26.49;51.88
76106;BME280;64832;45.274;5.880;2023-08-17T03:43:32;98927.56;;;26.49;51.85
76106;BME280;64832;45.274;5.880;2023-08-17T03:45:58;98932.22;;;26.49;51.91
76106;BME280;64832;45.274;5.880;2023-08-17T03:48:23;98935.28;;;26.47;51.93
76106;BME280;64832;45.274;5.880;2023-08-17T03:50:53;98947.06;;;26.48;51.37
76106;BME280;64832;45.274;5.880;2023-08-17T03:53:19;98955.56;;;26.46;51.18
76106;BME280;64832;45.274;5.880;2023-08-17T03:55:48;98966.53;;;26.46;51.56
76106;BME280;64832;45.274;5.880;2023-08-17T03:58:14;98964.09;;;26.45;51.70
76106;BME280;64832;45.274;5.880;2023-08-17T04:00:39;98969.59;;;26.45;51.65
76106;BME280;64832;45.274;5.880;2023-08-17T04:03:06;98959.44;;;26.45;51.73
76106;BME280;64832;45.274;5.880;2023-08-17T04:05:31;98953.41;;;26.43;51.70
76106;BME280;64832;45.274;5.880;2023-08-17T04:07:58;98956.97;;;26.44;51.75
76106;BME280;64832;45.274;5.880;2023-08-17T04:10:27;98970.16;;;26.42;51.65
76106;BME280;64832;45.274;5.880;2023-08-17T04:12:52;98969.34;;;26.41;51.98
76106;BME280;64832;45.274;5.880;2023-08-17T04:15:18;98966.06;;;26.39;51.96
76106;BME280;64832;45.274;5.880;2023-08-17T04:17:43;98960.84;;;26.38;52.04
76106;BME280;64832;45.274;5.880;2023-08-17T04:20:09;98952.88;;;26.02;51.63
76106;BME280;64832;45.274;5.880;2023-08-17T04:22:34;98968.78;;;25.46;52.58
76106;BME280;64832;45.274;5.880;2023-08-17T04:25:00;98961.03;;;24.99;53.78
76106;BME280;64832;45.274;5.880;2023-08-17T04:27:25;98960.84;;;24.66;54.44
76106;BME280;64832;45.274;5.880;2023-08-17T04:29:51;98966.56;;;24.39;55.35
76106;BME280;64832;45.274;5.880;2023-08-17T04:32:16;98967.97;;;24.26;55.85
76106;BME280;64832;45.274;5.880;2023-08-17T04:34:45;98970.69;;;24.26;55.56
76106;BME280;64832;45.274;5.880;2023-08-17T04:37:11;98970.94;;;24.15;55.44
76106;BME280;64832;45.274;5.880;2023-08-17T04:39:36;98970.63;;;24.06;55.69
76106;BME280;64832;45.274;5.880;2023-08-17T04:42:03;98961.63;;;23.95;55.93
76106;BME280;64832;45.274;5.880;2023-08-17T04:44:28;98966.25;;;23.90;56.05
76106;BME280;64832;45.274;5.880;2023-08-17T04:46:53;98965.16;;;23.86;56.02
76106;BME280;64832;45.274;5.880;2023-08-17T04:49:19;98980.13;;;23.68;56.33
76106;BME280;64832;45.274;5.880;2023-08-17T04:51:44;98975.75;;;23.57;56.82
76106;BME280;64832;45.274;5.880;2023-08-17T04:54:10;98971.66;;;23.60;56.90
76106;BME280;64832;45.274;5.880;2023-08-17T04:56:35;98980.34;;;23.47;57.62
76106;BME280;64832;45.274;5.880;2023-08-17T04:59:01;98982.97;;;23.31;57.67
76106;BME280;64832;45.274;5.880;2023-08-17T05:01:26;98997.63;;;23.15;58.18
76106;BME280;64832;45.274;5.880;2023-08-17T05:03:51;99011.50;;;23.04;58.41
76106;BME280;64832;45.274;5.880;2023-08-17T05:06:17;99013.16;;;23.10;58.04
76106;BME280;64832;45.274;5.880;2023-08-17T05:08:42;99017.34;;;23.22;57.65
76106;BME280;64832;45.274;5.880;2023-08-17T05:11:07;99021.72;;;23.28;57.80
76106;BME280;64832;45.274;5.880;2023-08-17T05:13:33;99037.28;;;23.28;57.91
76106;BME280;64832;45.274;5.880;2023-08-17T05:15:59;99053.03;;;23.16;57.99
76106;BME280;64832;45.274;5.880;2023-08-17T05:18:24;99056.81;;;23.10;58.23
76106;BME280;64832;45.274;5.880;2023-08-17T05:20:50;99069.16;;;23.17;58.06
76106;BME280;64832;45.274;5.880;2023-08-17T05:23:15;99084.56;;;23.33;57.37
76106;BME280;64832;45.274;5.880;2023-08-17T05:25:40;99081.88;;;23.38;57.47
76106;BME280;64832;45.274;5.880;2023-08-17T05:28:06;99098.81;;;23.46;57.73
76106;BME280;64832;45.274;5.880;2023-08-17T05:30:32;99099.69;;;23.51;57.26
76106;BME280;64832;45.274;5.880;2023-08-17T05:32:58;99103.53;;;23.55;57.58
76106;BME280;64832;45.274;5.880;2023-08-17T05:35:23;99110.66;;;23.61;57.67
76106;BME280;64832;45.274;5.880;2023-08-17T05:37:48;99119.13;;;23.65;58.41
76106;BME280;64832;45.274;5.880;2023-08-17T05:40:15;99120.31;;;23.79;58.54
76106;BME280;64832;45.274;5.880;2023-08-17T05:42:40;99128.78;;;23.82;59.50
76106;BME280;64832;45.274;5.880;2023-08-17T05:45:06;99126.06;;;23.87;59.81
76106;BME280;64832;45.274;5.880;2023-08-17T05:47:31;99119.44;;;23.73;60.52
76106;BME280;64832;45.274;5.880;2023-08-17T05:49:56;99109.34;;;23.74;61.15
76106;BME280;64832;45.274;5.880;2023-08-17T05:52:22;99112.41;;;23.87;60.97
76106;BME280;64832;45.274;5.880;2023-08-17T05:54:47;99108.34;;;23.95;61.31
76106;BME280;64832;45.274;5.880;2023-08-17T05:57:13;99090.34;;;23.99;61.61
76106;BME280;64832;45.274;5.880;2023-08-17T05:59:38;99064.38;;;24.07;61.43
76106;BME280;64832;45.274;5.880;2023-08-17T06:02:04;99046.94;;;24.13;61.54
76106;BME280;64832;45.274;5.880;2023-08-17T06:04:29;99050.75;;;24.17;60.87
76106;BME280;64832;45.274;5.880;2023-08-17T06:06:54;99043.69;;;24.21;60.36
76106;BME280;64832;45.274;5.880;2023-08-17T06:09:20;99041.19;;;24.14;60.14
76106;BME280;64832;45.274;5.880;2023-08-17T06:11:45;99042.03;;;24.20;60.14
76106;BME280;64832;45.274;5.880;2023-08-17T06:14:11;99042.56;;;24.17;59.92
76106;BME280;64832;45.274;5.880;2023-08-17T06:16:36;99041.97;;;24.05;60.57
76106;BME280;64832;45.274;5.880;2023-08-17T06:19:01;99048.22;;;23.90;60.85
76106;BME280;64832;45.274;5.880;2023-08-17T06:21:27;99042.72;;;23.75;61.54
76106;BME280;64832;45.274;5.880;2023-08-17T06:23:52;99055.25;;;23.71;61.63
76106;BME280;64832;45.274;5.880;2023-08-17T06:26:18;99054.97;;;23.72;62.07
76106;BME280;64832;45.274;5.880;2023-08-17T06:28:43;99049.78;;;23.66;62.02
76106;BME280;64832;45.274;5.880;2023-08-17T06:31:09;99051.91;;;23.59;62.84
76106;BME280;64832;45.274;5.880;2023-08-17T06:33:34;99056.19;;;23.39;63.10
76106;BME280;64832;45.274;5.880;2023-08-17T06:36:00;99056.66;;;23.31;62.87
76106;BME280;64832;45.274;5.880;2023-08-17T06:38:25;99047.47;;;23.37;62.19
76106;BME280;64832;45.274;5.880;2023-08-17T06:40:51;99058.41;;;23.43;61.67
76106;BME280;64832;45.274;5.880;2023-08-17T06:43:18;99065.00;;;23.47;61.18
76106;BME280;64832;45.274;5.880;2023-08-17T06:45:43;99059.88;;;23.60;61.56
76106;BME280;64832;45.274;5.880;2023-08-17T06:48:08;99051.47;;;23.77;61.42
76106;BME280;64832;45.274;5.880;2023-08-17T06:50:34;99052.03;;;23.89;61.16
76106;BME280;64832;45.274;5.880;2023-08-17T06:53:01;99069.53;;;23.93;61.93
76106;BME280;64832;45.274;5.880;2023-08-17T06:55:26;99063.53;;;23.86;61.84
76106;BME280;64832;45.274;5.880;2023-08-17T06:57:51;99059.13;;;23.85;62.60
76106;BME280;64832;45.274;5.880;2023-08-17T07:00:18;99065.69;;;23.89;62.58
76106;BME280;64832;45.274;5.880;2023-08-17T07:02:46;99057.53;;;23.99;62.17
76106;BME280;64832;45.274;5.880;2023-08-17T07:05:13;99055.69;;;24.15;61.81
76106;BME280;64832;45.274;5.880;2023-08-17T07:07:39;99041.22;;;24.29;61.17
76106;BME280;64832;45.274;5.880;2023-08-17T07:10:04;99048.63;;;24.44;60.93
76106;BME280;64832;45.274;5.880;2023-08-17T07:12:32;99048.09;;;24.57;60.60
76106;BME280;64832;45.274;5.880;2023-08-17T07:14:57;99041.25;;;24.65;60.36
76106;BME280;64832;45.274;5.880;2023-08-17T07:17:23;99054.13;;;24.74;59.73
76106;BME280;64832;45.274;5.880;2023-08-17T07:19:48;99053.84;;;24.81;59.72
76106;BME280;64832;45.274;5.880;2023-08-17T07:22:14;99056.03;;;24.89;59.74
76106;BME280;64832;45.274;5.880;2023-08-17T07:24:41;99066.69;;;24.95;59.33
76106;BME280;64832;45.274;5.880;2023-08-17T07:27:07;99068.91;;;24.98;59.16
76106;BME280;64832;45.274;5.880;2023-08-17T07:29:32;99072.44;;;25.04;59.02
76106;BME280;64832;45.274;5.880;2023-08-17T07:31:58;99059.81;;;25.08;58.62
76106;BME280;64832;45.274;5.880;2023-08-17T07:34:27;99064.50;;;25.13;58.44
76106;BME280;64832;45.274;5.880;2023-08-17T07:36:52;99065.84;;;25.15;58.59
76106;BME280;64832;45.274;5.880;2023-08-17T07:39:17;99060.66;;;25.19;58.18
76106;BME280;64832;45.274;5.880;2023-08-17T07:41:43;99059.28;;;25.21;58.30
76106;BME280;64832;45.274;5.880;2023-08-17T07:44:09;99057.06;;;25.23;58.41
76106;BME280;64832;45.274;5.880;2023-08-17T07:46:34;99038.44;;;25.25;58.41
76106;BME280;64832;45.274;5.880;2023-08-17T07:49:00;99045.28;;;25.28;58.26
76106;BME280;64832;45.274;5.880;2023-08-17T07:51:25;99032.94;;;25.30;58.41
76106;BME280;64832;45.274;5.880;2023-08-17T07:53:51;99029.94;;;25.32;58.36
76106;BME280;64832;45.274;5.880;2023-08-17T07:56:16;99021.97;;;25.35;58.15
76106;BME280;64832;45.274;5.880;2023-08-17T07:58:41;99016.22;;;25.37;57.92
76106;BME280;64832;45.274;5.880;2023-08-17T08:01:07;99013.75;;;25.40;58.01
76106;BME280;64832;45.274;5.880;2023-08-17T08:03:32;99009.91;;;25.41;57.76
76106;BME280;64832;45.274;5.880;2023-08-17T08:05:57;99009.34;;;25.44;57.74
76106;BME280;64832;45.274;5.880;2023-08-17T08:08:23;99007.44;;;25.45;57.79
76106;BME280;64832;45.274;5.880;2023-08-17T08:10:48;98996.19;;;25.46;57.51
76106;BME280;64832;45.274;5.880;2023-08-17T08:13:14;99000.34;;;25.49;57.34
76106;BME280;64832;45.274;5.880;2023-08-17T08:15:39;99009.91;;;25.51;57.52
76106;BME280;64832;45.274;5.880;2023-08-17T08:18:05;99010.72;;;25.52;57.37
76106;BME280;64832;45.274;5.880;2023-08-17T08:20:31;99007.19;;;25.51;57.10
76106;BME280;64832;45.274;5.880;2023-08-17T08:22:56;99014.53;;;25.56;57.32
76106;BME280;64832;45.274;5.880;2023-08-17T08:25:21;99014.25;;;25.57;57.19
76106;BME280;64832;45.274;5.880;2023-08-17T08:27:47;99018.63;;;25.58;57.02
76106;BME280;64832;45.274;5.880;2023-08-17T08:30:12;99022.47;;;25.57;57.01
76106;BME280;64832;45.274;5.880;2023-08-17T08:32:37;99019.19;;;25.55;57.09
76106;BME280;64832;45.274;5.880;2023-08-17T08:35:03;99023.84;;;25.55;56.82
76106;BME280;64832;45.274;5.880;2023-08-17T08:37:29;99026.59;;;25.55;57.06
76106;BME280;64832;45.274;5.880;2023-08-17T08:39:55;99032.06;;;25.55;56.82
76106;BME280;64832;45.274;5.880;2023-08-17T08:42:21;99030.16;;;25.55;56.95
76106;BME280;64832;45.274;5.880;2023-08-17T08:44:49;99026.59;;;25.55;56.99
76106;BME280;64832;45.274;5.880;2023-08-17T08:47:16;99027.41;;;25.55;56.68
76106;BME280;64832;45.274;5.880;2023-08-17T08:49:53;99035.63;;;25.55;56.86
76106;BME280;64832;45.274;5.880;2023-08-17T08:52:23;99036.75;;;25.54;56.73
76106;BME280;64832;45.274;5.880;2023-08-17T08:54:54;99034.53;;;25.56;56.64
76106;BME280;64832;45.274;5.880;2023-08-17T08:57:21;99031.81;;;25.56;56.75
76106;BME280;64832;45.274;5.880;2023-08-17T08:59:46;99032.91;;;25.55;56.66
76106;BME280;64832;45.274;5.880;2023-08-17T09:02:16;99026.03;;;25.58;56.52
76106;BME280;64832;45.274;5.880;2023-08-17T09:04:43;99022.47;;;25.57;56.71
76106;BME280;64832;45.274;5.880;2023-08-17T09:07:11;99018.09;;;25.56;56.55
76106;BME280;64832;45.274;5.880;2023-08-17T09:09:37;99013.16;;;25.58;56.53
76106;BME280;64832;45.274;5.880;2023-08-17T09:12:04;99004.94;;;25.58;56.53
76106;BME280;64832;45.274;5.880;2023-08-17T09:14:32;99004.94;;;25.58;56.36
76106;BME280;64832;45.274;5.880;2023-08-17T09:16:57;99002.19;;;25.58;56.31
76106;BME280;64832;45.274;5.880;2023-08-17T09:19:24;98988.50;;;25.58;56.40
76106;BME280;64832;45.274;5.880;2023-08-17T09:21:50;98991.78;;;25.60;55.91
76106;BME280;64832;45.274;5.880;2023-08-17T09:24:15;98989.31;;;25.59;56.30
76106;BME280;64832;45.274;5.880;2023-08-17T09:26:40;98987.13;;;25.61;56.33
76106;BME280;64832;45.274;5.880;2023-08-17T09:29:19;98986.84;;;25.62;56.37
76106;BME280;64832;45.274;5.880;2023-08-17T09:31:46;98983.56;;;25.60;56.58
76106;BME280;64832;45.274;5.880;2023-08-17T09:34:11;98981.38;;;25.62;56.56
76106;BME280;64832;45.274;5.880;2023-08-17T09:36:36;98975.91;;;25.62;56.40
76106;BME280;64832;45.274;5.880;2023-08-17T09:39:02;98979.44;;;25.63;56.79
76106;BME280;64832;45.274;5.880;2023-08-17T09:41:28;98976.69;;;25.63;56.78
76106;BME280;64832;45.274;5.880;2023-08-17T09:43:57;98966.56;;;25.63;56.56
76106;BME280;64832;45.274;5.880;2023-08-17T09:46:22;98959.47;;;25.62;56.74
76106;BME280;64832;45.274;5.880;2023-08-17T21:01:20;98745.19;;;27.08;59.46
76106;BME280;64832;45.274;5.880;2023-08-17T21:03:46;98745.50;;;27.06;59.54
76106;BME280;64832;45.274;5.880;2023-08-17T21:06:11;98751.59;;;27.03;59.41
76106;BME280;64832;45.274;5.880;2023-08-17T21:08:37;98750.16;;;27.06;59.24
76106;BME280;64832;45.274;5.880;2023-08-17T21:11:03;98746.69;;;27.00;59.12
76106;BME280;64832;45.274;5.880;2023-08-17T21:13:28;98754.31;;;27.03;59.20
76106;BME280;64832;45.274;5.880;2023-08-17T21:16:14;98752.31;;;27.09;58.82
76106;BME280;64832;45.274;5.880;2023-08-17T21:18:39;98758.91;;;27.08;58.77
76106;BME280;64832;45.274;5.880;2023-08-17T21:21:04;98761.66;;;27.08;58.77
76106;BME280;64832;45.274;5.880;2023-08-17T21:23:30;98764.91;;;27.10;58.59
76106;BME280;64832;45.274;5.880;2023-08-17T21:25:56;98767.38;;;27.11;58.30
76106;BME280;64832;45.274;5.880;2023-08-17T21:28:23;98767.91;;;27.13;58.06
76106;BME280;64832;45.274;5.880;2023-08-17T21:30:48;98772.28;;;27.14;58.32
76106;BME280;64832;45.274;5.880;2023-08-17T21:33:14;98774.44;;;27.17;57.89
76106;BME280;64832;45.274;5.880;2023-08-17T21:35:39;98770.88;;;27.17;57.68
76106;BME280;64832;45.274;5.880;2023-08-17T21:38:04;98772.81;;;27.16;57.88
76106;BME280;64832;45.274;5.880;2023-08-17T21:40:31;98770.78;;;27.22;57.39
76106;BME280;64832;45.274;5.880;2023-08-17T21:42:56;98769.97;;;27.21;57.48
76106;BME280;64832;45.274;5.880;2023-08-17T21:45:22;98777.63;;;27.24;57.44
76106;BME280;64832;45.274;5.880;2023-08-17T21:47:47;98762.25;;;27.23;57.23
76106;BME280;64832;45.274;5.880;2023-08-17T21:50:13;98778.13;;;27.26;57.00
76106;BME280;64832;45.274;5.880;2023-08-17T21:52:38;98783.03;;;27.29;56.76
76106;BME280;64832;45.274;5.880;2023-08-17T21:55:04;98778.34;;;27.30;56.73
76106;BME280;64832;45.274;5.880;2023-08-17T21:57:29;98779.19;;;27.30;57.23
76106;BME280;64832;45.274;5.880;2023-08-17T21:59:55;98775.09;;;27.28;57.78
76106;BME280;64832;45.274;5.880;2023-08-17T22:02:20;98782.28;;;27.24;55.55
76106;BME280;64832;45.274;5.880;2023-08-17T22:04:46;98781.84;;;27.17;53.18
76106;BME280;64832;45.274;5.880;2023-08-17T22:07:11;98789.44;;;27.06;51.54
76106;BME280;64832;45.274;5.880;2023-08-17T22:09:36;98784.28;;;27.00;50.44
76106;BME280;64832;45.274;5.880;2023-08-17T22:12:02;98785.47;;;26.94;50.68
76106;BME280;64832;45.274;5.880;2023-08-17T22:14:28;98788.81;;;26.91;53.07
76106;BME280;64832;45.274;5.880;2023-08-17T22:16:57;98787.47;;;26.88;53.40
76106;BME280;64832;45.274;5.880;2023-08-17T22:19:23;98786.38;;;26.89;53.48
76106;BME280;64832;45.274;5.880;2023-08-17T22:21:48;98784.72;;;26.88;53.36
76106;BME280;64832;45.274;5.880;2023-08-17T22:24:14;98798.44;;;26.88;53.52
76106;BME280;64832;45.274;5.880;2023-08-17T22:26:39;98792.13;;;26.88;53.43
76106;BME280;64832;45.274;5.880;2023-08-17T22:29:05;98785.31;;;26.85;53.00
76106;BME280;64832;45.274;5.880;2023-08-17T22:31:32;98789.69;;;26.86;52.87
76106;BME280;64832;45.274;5.880;2023-08-17T22:33:58;98793.53;;;26.85;53.03
76106;BME280;64832;45.274;5.880;2023-08-17T22:36:24;98798.75;;;26.87;53.09
76106;BME280;64832;45.274;5.880;2023-08-17T22:38:49;98804.25;;;26.87;53.16
76106;BME280;64832;45.274;5.880;2023-08-17T22:41:15;98799.84;;;26.86;53.18
76106;BME280;64832;45.274;5.880;2023-08-17T22:43:40;98803.19;;;26.82;53.05
76106;BME280;64832;45.274;5.880;2023-08-17T22:46:05;98801.25;;;26.83;52.89
76106;BME280;64832;45.274;5.880;2023-08-17T22:48:31;98809.75;;;26.87;52.59
76106;BME280;64832;45.274;5.880;2023-08-17T22:50:56;98807.56;;;26.83;52.39
76106;BME280;64832;45.274;5.880;2023-08-17T22:53:22;98812.25;;;26.83;52.39
76106;BME280;64832;45.274;5.880;2023-08-17T22:55:47;98816.09;;;26.82;52.25
76106;BME280;64832;45.274;5.880;2023-08-17T22:58:12;98826.28;;;26.81;52.05
76106;BME280;64832;45.274;5.880;2023-08-17T23:00:38;98821.88;;;26.80;52.08
76106;BME280;64832;45.274;5.880;2023-08-17T23:03:04;98824.31;;;26.82;52.08
76106;BME280;64832;45.274;5.880;2023-08-17T23:05:30;98824.91;;;26.79;52.31
76106;BME280;64832;45.274;5.880;2023-08-17T23:07:55;98826.84;;;26.78;51.99
76106;BME280;64832;45.274;5.880;2023-08-17T23:10:21;98820.53;;;26.78;52.07
76106;BME280;64832;45.274;5.880;2023-08-17T23:12:46;98835.88;;;26.79;51.98
76106;BME280;64832;45.274;5.880;2023-08-17T23:15:12;98832.34;;;26.78;51.89
76106;BME280;64832;45.274;5.880;2023-08-17T23:17:37;98834.28;;;26.78;51.67
76106;BME280;64832;45.274;5.880;2023-08-17T23:20:03;98827.09;;;26.77;51.72
76106;BME280;64832;45.274;5.880;2023-08-17T23:22:28;98832.59;;;26.77;51.83
76106;BME280;64832;45.274;5.880;2023-08-17T23:24:54;98830.66;;;26.77;52.16
76106;BME280;64832;45.274;5.880;2023-08-17T23:27:19;98826.03;;;26.78;51.77
76106;BME280;64832;45.274;5.880;2023-08-17T23:29:45;98818.03;;;26.76;51.73
76106;BME280;64832;45.274;5.880;2023-08-17T23:32:10;98817.25;;;26.76;51.76
76106;BME280;64832;45.274;5.880;2023-08-17T23:34:35;98830.16;;;26.75;51.69
76106;BME280;64832;45.274;5.880;2023-08-17T23:37:01;98825.50;;;26.76;51.72
76106;BME280;64832;45.274;5.880;2023-08-17T23:39:26;98829.84;;;26.77;51.86
76106;BME280;64832;45.274;5.880;2023-08-17T23:41:51;98828.22;;;26.76;51.39
76106;BME280;64832;45.274;5.880;2023-08-17T23:44:18;98833.72;;;26.76;51.54
76106;BME280;64832;45.274;5.880;2023-08-17T23:46:44;98828.22;;;26.76;51.60
76106;BME280;64832;45.274;5.880;2023-08-17T23:49:10;98826.59;;;26.75;51.52
76106;BME280;64832;45.274;5.880;2023-08-17T23:51:35;98829.34;;;26.75;51.55
76106;BME280;64832;45.274;5.880;2023-08-17T23:54:01;98831.78;;;26.76;51.51
76106;BME280;64832;45.274;5.880;2023-08-17T23:56:26;98825.75;;;26.74;51.54
76106;BME280;64832;45.274;5.880;2023-08-17T23:58:51;98817.84;;;26.73;51.30
